This is the latest recevied weather packets stored in our database for station/object EA2BK-11. If no packets are shown the sender has not sent any weather packets the latest 10 day(s).
| Time | Temp. | Humidity | Pressure | Rain* | Wind** | Luminosity | Snow |
|---|---|---|---|---|---|---|---|
| 1777750331 | 16.11° C | 71% | 947 hPa | - | - | - | - |
| 1777749426 | 16.11° C | 70% | 947 hPa | - | - | - | - |
| 1777748520 | 16.11° C | 70% | 947 hPa | - | - | - | - |
| 1777747615 | 16.11° C | 71% | 946 hPa | - | - | - | - |
| 1777746707 | 16.11° C | 70% | 946 hPa | - | - | - | - |
| 1777745802 | 16.11° C | 69% | 946 hPa | - | - | - | - |
| 1777745060 | 15.56° C | 70% | 946 hPa | - | - | - | - |
| 1777744897 | 15.56° C | 70% | 946 hPa | - | - | - | - |
| 1777743992 | 16.67° C | 64% | 946 hPa | - | - | - | - |
| 1777743087 | 18.33° C | 62% | 946 hPa | - | - | - | - |
| 1777742182 | 18.89° C | 57% | 946 hPa | - | - | - | - |
| 1777741277 | 19.44° C | 53% | 946 hPa | - | - | - | - |
| 1777740371 | 20° C | 50% | 946 hPa | - | - | - | - |
| 1777739466 | 20.56° C | 47% | 946 hPa | - | - | - | - |
| 1777738561 | 21.67° C | 47% | 947 hPa | - | - | - | - |
| 1777737656 | 21.67° C | 47% | 947 hPa | - | - | - | - |
| 1777736751 | 20° C | 51% | 947 hPa | - | - | - | - |
| 1777735845 | 20° C | 50% | 947 hPa | - | - | - | - |
| 1777734940 | 20.56° C | 48% | 947 hPa | - | - | - | - |
| 1777734035 | 20° C | 48% | 947 hPa | - | - | - | - |
| 1777733130 | 21.11° C | 47% | 947 hPa | - | - | - | - |
| 1777732225 | 20.56° C | 48% | 947 hPa | - | - | - | - |
| 1777731320 | 20° C | 48% | 947 hPa | - | - | - | - |
| 1777730414 | 18.89° C | 50% | 948 hPa | - | - | - | - |
| 1777729510 | 19.44° C | 49% | 948 hPa | - | - | - | - |
* Rain since midnight (hover to see other rain measurements)
** Current wind speed in m/s (hover to see current wind gust speed)